createdAt,value
2018-04-25T20:06:22.600Z,100858.09
2018-04-25T20:08:50.060Z,100864.52
2018-04-25T20:11:17.469Z,100859.58
2018-04-25T20:13:44.939Z,100869.14
2018-04-25T20:16:12.313Z,100868.72
2018-04-25T20:18:39.736Z,100875.50
2018-04-25T20:21:07.148Z,100874.79
2018-04-25T20:23:34.580Z,100877.14
2018-04-25T20:26:01.992Z,100879.09
2018-04-25T20:28:29.414Z,100876.98
2018-04-25T20:30:56.833Z,100880.73
2018-04-25T20:33:24.253Z,100872.77
2018-04-25T20:35:51.652Z,100877.09
2018-04-25T20:38:19.079Z,100877.61
2018-04-25T20:40:46.488Z,100882.17
2018-04-25T20:43:13.907Z,100881.73
2018-04-25T20:45:41.320Z,100886.70
2018-04-25T20:48:08.730Z,100891.25
2018-04-25T20:50:36.144Z,100891.72
2018-04-25T20:53:03.575Z,100902.77
2018-04-25T20:55:30.984Z,100899.70
2018-04-25T20:57:58.404Z,100903.55
2018-04-25T21:00:25.816Z,100895.63
2018-04-25T21:02:53.224Z,100911.33
2018-04-25T21:05:20.646Z,100898.02
2018-04-25T21:07:48.073Z,100900.41
2018-04-25T21:10:15.532Z,100900.91
2018-04-25T21:12:42.972Z,100889.53
2018-04-25T21:15:10.426Z,100899.48
2018-04-25T21:17:37.834Z,100895.48
2018-04-25T21:20:05.249Z,100893.78
2018-04-25T21:22:32.652Z,100899.17
2018-04-25T21:25:00.155Z,100900.17
2018-04-25T21:27:27.489Z,100900.46
2018-04-25T21:29:54.905Z,100898.86
2018-04-25T21:32:22.316Z,100893.89
2018-04-25T21:34:49.724Z,100889.78
2018-04-25T21:37:17.137Z,100891.43
2018-04-25T21:39:44.560Z,100894.62
2018-04-25T21:42:11.965Z,100897.47
2018-04-25T21:44:39.482Z,100900.16
2018-04-25T21:47:06.896Z,100899.78
2018-04-25T21:49:34.316Z,100893.78
2018-04-25T21:52:01.720Z,100894.31
2018-04-25T21:54:29.141Z,100890.19
2018-04-25T21:56:56.544Z,100888.69
2018-04-25T21:59:24.005Z,100886.81
2018-04-25T22:01:51.413Z,100889.36
2018-04-25T22:04:18.920Z,100889.22
2018-04-25T22:06:46.347Z,100889.05
2018-04-25T22:09:13.765Z,100893.86
2018-04-25T22:11:41.184Z,100891.66
2018-04-25T22:14:08.634Z,100888.08
2018-04-25T22:16:36.036Z,100885.39
2018-04-25T22:19:03.453Z,100891.31
2018-04-25T22:21:30.864Z,100886.39
2018-04-25T22:23:58.266Z,100885.23
2018-04-25T22:26:25.685Z,100883.70
2018-04-25T22:28:53.102Z,100887.52
2018-04-25T22:31:20.516Z,100892.55
2018-04-25T22:33:47.920Z,100886.95
2018-04-25T22:36:15.344Z,100894.44
2018-04-25T22:38:42.747Z,100890.30
2018-04-25T22:41:10.175Z,100890.22
2018-04-25T22:43:37.582Z,100885.19
2018-04-25T22:46:05.053Z,100887.95
2018-04-25T22:48:32.457Z,100891.72
2018-04-25T22:50:59.876Z,100882.05
2018-04-25T22:53:27.281Z,100888.36
2018-04-25T22:55:54.698Z,100879.78
2018-04-25T22:58:22.127Z,100886.20
2018-04-25T23:00:49.572Z,100889.86
2018-04-25T23:03:16.998Z,100892.62
2018-04-25T23:05:44.417Z,100885.88
2018-04-25T23:08:11.880Z,100891.17
2018-04-25T23:10:39.236Z,100894.01
2018-04-25T23:13:06.647Z,100893.11
2018-04-25T23:15:34.052Z,100893.19
2018-04-25T23:18:01.465Z,100882.55
2018-04-25T23:20:28.922Z,100884.20
2018-04-25T23:22:56.325Z,100886.36
2018-04-25T23:25:23.736Z,100881.84
2018-04-25T23:27:51.145Z,100876.22
2018-04-25T23:30:18.564Z,100884.76
2018-04-25T23:32:45.983Z,100880.39
2018-04-25T23:35:13.394Z,100877.15
2018-04-25T23:37:40.800Z,100880.06
2018-04-25T23:40:08.216Z,100873.09
2018-04-25T23:42:35.645Z,100875.36
2018-04-25T23:45:03.063Z,100879.98
2018-04-25T23:47:30.472Z,100879.84
2018-04-25T23:49:57.889Z,100875.44
2018-04-25T23:52:25.294Z,100867.72
2018-04-25T23:54:52.702Z,100869.09
2018-04-25T23:57:20.121Z,100867.64
2018-04-25T23:59:47.526Z,100869.17
